createdAt,value
2023-05-06T00:00:11.112Z,1670.00
2023-05-06T00:01:11.057Z,1663.00
2023-05-06T00:02:11.134Z,1670.00
2023-05-06T00:03:11.238Z,1657.00
2023-05-06T00:04:11.398Z,1647.00
2023-05-06T00:05:11.564Z,1654.00
2023-05-06T00:06:11.289Z,1655.00
2023-05-06T00:07:11.406Z,1659.00
2023-05-06T00:08:11.402Z,1663.00
2023-05-06T00:09:11.468Z,1651.00
2023-05-06T00:10:11.545Z,1639.00
2023-05-06T00:11:11.570Z,1659.00
2023-05-06T00:12:11.642Z,1644.00
2023-05-06T00:13:11.741Z,1644.00
2023-05-06T00:14:11.715Z,1646.00
2023-05-06T00:15:12.088Z,1656.00
2023-05-06T00:16:11.951Z,1656.00
2023-05-06T00:17:11.931Z,1642.00
2023-05-06T00:18:11.955Z,1651.00
2023-05-06T00:19:12.453Z,1642.00
2023-05-06T00:20:12.236Z,1647.00
2023-05-06T00:21:12.110Z,1636.00
2023-05-06T00:22:12.159Z,1640.00
2023-05-06T00:23:12.237Z,1640.00
2023-05-06T00:24:12.282Z,1640.00
2023-05-06T00:25:12.327Z,1640.00
2023-05-06T00:26:12.348Z,1632.00
2023-05-06T00:27:12.461Z,1629.00
2023-05-06T00:28:12.548Z,1631.00
2023-05-06T00:29:12.523Z,1641.00
2023-05-06T00:30:12.606Z,1635.00
2023-05-06T00:31:12.628Z,1641.00
2023-05-06T00:32:12.693Z,1639.00
2023-05-06T00:33:12.700Z,1623.00
2023-05-06T00:34:12.809Z,1621.00
2023-05-06T00:35:12.834Z,1622.00
2023-05-06T00:36:12.960Z,1634.00
2023-05-06T00:37:12.979Z,1628.00
2023-05-06T00:38:13.016Z,1625.00
2023-05-06T00:39:13.101Z,1626.00
2023-05-06T00:40:13.103Z,1633.00
2023-05-06T00:41:13.183Z,1634.00
2023-05-06T00:42:13.233Z,1626.00
2023-05-06T00:43:13.260Z,1644.00
2023-05-06T00:44:13.312Z,1629.00
2023-05-06T00:45:13.398Z,1626.00
2023-05-06T00:46:13.503Z,1638.00
2023-05-06T00:47:13.459Z,1628.00
2023-05-06T00:48:13.666Z,1630.00
2023-05-06T00:49:13.568Z,1625.00
2023-05-06T00:50:13.647Z,1630.00
2023-05-06T00:51:13.689Z,1623.00
2023-05-06T00:52:13.858Z,1629.00
2023-05-06T00:53:13.842Z,1623.00
2023-05-06T00:54:13.883Z,1619.00
2023-05-06T00:55:14.038Z,1618.00
2023-05-06T00:56:14.043Z,1618.00
2023-05-06T00:57:14.029Z,1624.00
2023-05-06T00:58:14.068Z,1611.00
2023-05-06T00:59:14.158Z,1606.00
2023-05-06T01:00:14.232Z,1626.00
2023-05-06T01:01:14.344Z,1620.00
2023-05-06T01:02:14.358Z,1617.00
2023-05-06T01:03:14.443Z,1618.00
2023-05-06T01:04:14.428Z,1617.00
2023-05-06T01:05:14.576Z,1617.00
2023-05-06T01:06:14.569Z,1621.00
2023-05-06T01:07:14.718Z,1620.00
2023-05-06T01:08:14.784Z,1616.00
2023-05-06T01:09:14.788Z,1617.00
2023-05-06T01:10:14.810Z,1616.00
2023-05-06T01:11:15.897Z,1616.00
2023-05-06T01:12:14.964Z,1608.00
2023-05-06T01:13:15.190Z,1618.00
2023-05-06T01:14:15.063Z,1614.00
2023-05-06T01:15:15.121Z,1607.00
2023-05-06T01:16:15.202Z,1612.00
2023-05-06T01:17:15.281Z,1607.00
2023-05-06T01:18:15.289Z,1612.00
2023-05-06T01:19:15.374Z,1613.00
2023-05-06T01:20:15.461Z,1609.00
2023-05-06T01:21:15.486Z,1606.00
2023-05-06T01:22:15.542Z,1593.00
2023-05-06T01:23:15.596Z,1599.00
2023-05-06T01:24:15.716Z,1603.00
2023-05-06T01:25:15.704Z,1607.00
2023-05-06T01:26:15.776Z,1607.00
2023-05-06T01:27:15.848Z,1608.00
2023-05-06T01:28:15.902Z,1599.00
2023-05-06T01:29:15.958Z,1615.00
2023-05-06T01:30:16.005Z,1601.00
2023-05-06T01:31:16.137Z,1594.00
2023-05-06T01:32:16.131Z,1587.00
2023-05-06T01:33:16.201Z,1592.00
2023-05-06T01:34:16.247Z,1593.00
2023-05-06T01:35:16.290Z,1596.00
2023-05-06T01:36:16.367Z,1590.00
2023-05-06T01:37:16.405Z,1596.00
2023-05-06T01:38:16.469Z,1591.00
2023-05-06T01:39:16.509Z,1583.00
2023-05-06T01:40:16.720Z,1596.00
2023-05-06T01:41:16.640Z,1590.00
2023-05-06T01:42:16.676Z,1598.00
2023-05-06T01:43:16.781Z,1574.00
2023-05-06T01:44:16.788Z,1583.00
2023-05-06T01:45:16.900Z,1593.00
2023-05-06T01:46:16.924Z,1592.00
2023-05-06T01:47:16.947Z,1604.00
2023-05-06T01:48:17.039Z,1590.00
2023-05-06T01:49:17.155Z,1594.00
2023-05-06T01:50:17.175Z,1582.00
2023-05-06T01:51:17.250Z,1588.00
2023-05-06T01:52:17.207Z,1583.00
2023-05-06T01:53:17.272Z,1581.00
2023-05-06T01:54:17.329Z,1577.00
2023-05-06T01:55:17.368Z,1589.00
2023-05-06T01:56:17.415Z,1581.00
2023-05-06T01:57:17.491Z,1590.00
2023-05-06T01:58:17.547Z,1588.00
2023-05-06T01:59:17.540Z,1590.00
2023-05-06T02:00:17.592Z,1588.00
2023-05-06T02:01:17.733Z,1575.00
2023-05-06T02:02:17.796Z,1588.00
2023-05-06T02:03:17.732Z,1586.00
2023-05-06T02:04:17.698Z,1587.00
2023-05-06T02:05:17.786Z,1582.00
2023-05-06T02:06:17.793Z,1578.00
2023-05-06T02:07:17.752Z,1577.00
2023-05-06T02:08:17.809Z,1586.00
2023-05-06T02:09:17.877Z,1587.00
2023-05-06T02:10:17.924Z,1575.00
2023-05-06T02:11:17.943Z,1589.00
2023-05-06T02:12:18.049Z,1575.00
2023-05-06T02:13:18.162Z,1586.00
2023-05-06T02:14:18.219Z,1584.00
2023-05-06T02:15:18.112Z,1577.00
2023-05-06T02:16:18.154Z,1577.00
2023-05-06T02:17:18.189Z,1577.00
2023-05-06T02:18:18.285Z,1577.00
2023-05-06T02:19:18.244Z,1585.00
2023-05-06T02:20:18.296Z,1576.00
2023-05-06T02:21:18.296Z,1578.00
2023-05-06T02:22:18.359Z,1575.00
2023-05-06T02:23:18.354Z,1570.00
2023-05-06T02:24:18.372Z,1565.00
2023-05-06T02:25:18.355Z,1568.00
2023-05-06T02:26:18.361Z,1575.00
2023-05-06T02:27:18.395Z,1574.00
2023-05-06T02:28:18.467Z,1569.00
2023-05-06T02:29:18.403Z,1562.00
2023-05-06T02:30:18.420Z,1569.00
2023-05-06T02:31:18.482Z,1570.00
2023-05-06T02:32:18.415Z,1570.00
2023-05-06T02:33:18.495Z,1567.00
2023-05-06T02:34:18.430Z,1565.00
2023-05-06T02:35:18.891Z,1560.00
2023-05-06T02:36:18.479Z,1574.00
2023-05-06T02:37:18.450Z,1571.00
2023-05-06T02:38:18.457Z,1564.00
2023-05-06T02:39:18.490Z,1566.00
2023-05-06T02:40:18.516Z,1573.00
2023-05-06T02:41:18.548Z,1558.00
2023-05-06T02:42:18.558Z,1556.00
2023-05-06T02:43:18.564Z,1553.00
2023-05-06T02:44:18.620Z,1553.00
2023-05-06T02:45:18.564Z,1558.00
2023-05-06T02:46:18.687Z,1548.00
2023-05-06T02:47:18.612Z,1561.00
2023-05-06T02:48:18.589Z,1553.00
2023-05-06T02:49:18.572Z,1559.00
2023-05-06T02:50:18.613Z,1559.00
2023-05-06T02:51:18.587Z,1547.00
2023-05-06T02:52:18.619Z,1553.00
2023-05-06T02:53:18.682Z,1550.00
2023-05-06T02:54:18.624Z,1558.00
2023-05-06T02:55:18.640Z,1554.00
2023-05-06T02:56:18.613Z,1545.00
2023-05-06T02:57:18.611Z,1545.00
2023-05-06T02:58:18.582Z,1545.00
2023-05-06T02:59:18.672Z,1530.00
2023-05-06T03:00:18.809Z,1548.00
2023-05-06T03:01:18.779Z,1544.00
2023-05-06T03:02:18.749Z,1544.00
2023-05-06T03:03:18.765Z,1542.00
2023-05-06T03:04:18.905Z,1541.00
2023-05-06T03:05:18.823Z,1543.00
2023-05-06T03:06:18.813Z,1532.00
2023-05-06T03:07:18.899Z,1531.00
2023-05-06T03:08:18.872Z,1526.00
2023-05-06T03:09:18.879Z,1510.00
2023-05-06T03:10:18.869Z,1510.00
2023-05-06T03:11:18.919Z,1520.00
2023-05-06T03:12:18.902Z,1509.00
2023-05-06T03:13:19.010Z,1518.00
2023-05-06T03:14:18.943Z,1521.00
2023-05-06T03:15:18.953Z,1519.00
2023-05-06T03:16:19.059Z,1513.00
2023-05-06T03:17:18.995Z,1511.00
2023-05-06T03:18:18.956Z,1510.00
2023-05-06T03:19:18.972Z,1506.00
2023-05-06T03:20:18.946Z,1511.00
2023-05-06T03:21:19.033Z,1502.00
2023-05-06T03:22:18.928Z,1512.00
2023-05-06T03:23:18.926Z,1509.00
2023-05-06T03:24:18.956Z,1496.00
2023-05-06T03:25:18.914Z,1503.00
2023-05-06T03:26:18.961Z,1497.00
2023-05-06T03:27:18.924Z,1501.00
2023-05-06T03:28:18.895Z,1497.00
2023-05-06T03:29:18.902Z,1503.00
2023-05-06T03:30:18.944Z,1506.00
2023-05-06T03:31:18.889Z,1500.00
2023-05-06T03:32:19.042Z,1499.00
2023-05-06T03:33:18.894Z,1495.00
2023-05-06T03:34:18.862Z,1501.00
2023-05-06T03:35:18.915Z,1509.00
2023-05-06T03:36:18.946Z,1498.00
2023-05-06T03:37:18.949Z,1497.00
2023-05-06T03:38:18.891Z,1492.00
2023-05-06T03:39:18.915Z,1487.00
2023-05-06T03:40:18.878Z,1497.00
2023-05-06T03:41:18.915Z,1486.00
2023-05-06T03:42:18.906Z,1496.00
2023-05-06T03:43:18.911Z,1499.00
2023-05-06T03:44:18.871Z,1492.00
2023-05-06T03:45:18.869Z,1499.00
2023-05-06T03:46:18.867Z,1482.00
2023-05-06T03:47:18.891Z,1497.00
2023-05-06T03:48:18.940Z,1479.00
2023-05-06T03:49:18.909Z,1502.00
2023-05-06T03:50:18.845Z,1486.00
2023-05-06T03:51:18.879Z,1487.00
2023-05-06T03:52:18.859Z,1482.00
2023-05-06T03:53:18.871Z,1487.00
2023-05-06T03:54:18.876Z,1487.00
2023-05-06T03:55:18.910Z,1480.00
2023-05-06T03:56:18.885Z,1489.00
2023-05-06T03:57:18.859Z,1475.00
2023-05-06T03:58:18.877Z,1484.00
2023-05-06T03:59:18.866Z,1473.00
2023-05-06T04:00:18.886Z,1469.00
2023-05-06T04:01:18.885Z,1478.00
2023-05-06T04:02:18.912Z,1481.00
2023-05-06T04:03:18.944Z,1482.00
2023-05-06T04:04:18.869Z,1474.00
2023-05-06T04:05:18.911Z,1475.00
2023-05-06T04:06:18.862Z,1478.00
2023-05-06T04:07:18.887Z,1488.00
2023-05-06T04:08:18.880Z,1484.00
2023-05-06T04:09:18.837Z,1479.00
2023-05-06T04:10:18.888Z,1481.00
2023-05-06T04:11:18.846Z,1486.00
2023-05-06T04:12:18.853Z,1476.00
2023-05-06T04:13:18.907Z,1476.00
2023-05-06T04:14:18.876Z,1474.00
2023-05-06T04:15:18.887Z,1481.00
2023-05-06T04:16:18.892Z,1483.00
2023-05-06T04:17:18.891Z,1483.00
2023-05-06T04:18:18.933Z,1479.00
2023-05-06T04:19:18.906Z,1467.00
2023-05-06T04:20:18.899Z,1484.00
2023-05-06T04:21:18.872Z,1477.00
2023-05-06T04:22:18.859Z,1477.00
2023-05-06T04:23:18.862Z,1467.00
2023-05-06T04:24:18.855Z,1483.00
2023-05-06T04:25:18.838Z,1473.00
2023-05-06T04:26:18.883Z,1472.00
2023-05-06T04:27:18.858Z,1477.00
2023-05-06T04:28:18.865Z,1482.00
2023-05-06T04:29:18.881Z,1479.00
2023-05-06T04:30:18.871Z,1466.00
2023-05-06T04:31:18.907Z,1473.00
2023-05-06T04:32:18.889Z,1476.00
2023-05-06T04:33:18.904Z,1467.00
2023-05-06T04:34:18.910Z,1477.00
2023-05-06T04:35:18.914Z,1464.00
2023-05-06T04:36:18.965Z,1468.00
2023-05-06T04:37:18.890Z,1485.00
2023-05-06T04:38:18.933Z,1480.00
2023-05-06T04:39:18.942Z,1469.00
2023-05-06T04:40:18.897Z,1471.00
2023-05-06T04:41:18.917Z,1472.00
2023-05-06T04:42:18.900Z,1474.00
2023-05-06T04:43:18.912Z,1469.00
2023-05-06T04:44:18.918Z,1464.00
2023-05-06T04:45:18.920Z,1461.00
2023-05-06T04:46:18.992Z,1455.00
2023-05-06T04:47:18.931Z,1468.00
2023-05-06T04:48:18.939Z,1449.00
2023-05-06T04:49:18.948Z,1454.00
2023-05-06T04:50:18.910Z,1458.00
2023-05-06T04:51:18.921Z,1447.00
2023-05-06T04:52:18.973Z,1463.00
2023-05-06T04:53:18.941Z,1449.00
2023-05-06T04:54:18.955Z,1446.00
2023-05-06T04:55:18.949Z,1443.00
2023-05-06T04:56:18.962Z,1442.00
2023-05-06T04:57:18.964Z,1447.00
2023-05-06T04:58:18.977Z,1441.00
2023-05-06T04:59:18.936Z,1435.00
2023-05-06T05:00:18.979Z,1432.00
2023-05-06T05:01:19.059Z,1444.00
2023-05-06T05:02:18.946Z,1445.00
2023-05-06T05:03:19.098Z,1437.00
2023-05-06T05:04:18.958Z,1431.00
2023-05-06T05:05:18.968Z,1430.00
2023-05-06T05:06:18.992Z,1427.00
2023-05-06T05:07:18.967Z,1420.00
2023-05-06T05:08:19.027Z,1429.00
2023-05-06T05:09:18.942Z,1428.00
2023-05-06T05:10:18.994Z,1415.00
2023-05-06T05:11:18.962Z,1422.00
2023-05-06T05:12:19.014Z,1414.00
2023-05-06T05:13:19.062Z,1419.00
2023-05-06T05:14:18.975Z,1423.00
2023-05-06T05:15:18.981Z,1422.00
2023-05-06T05:16:19.045Z,1425.00
2023-05-06T05:17:18.996Z,1426.00
2023-05-06T05:18:19.005Z,1408.00
2023-05-06T05:19:19.010Z,1414.00
2023-05-06T05:20:18.991Z,1409.00
2023-05-06T05:21:18.951Z,1411.00
2023-05-06T05:22:18.975Z,1424.00
2023-05-06T05:23:18.979Z,1410.00
2023-05-06T05:24:19.039Z,1417.00
2023-05-06T05:25:18.990Z,1405.00
2023-05-06T05:26:18.969Z,1397.00
2023-05-06T05:27:18.974Z,1408.00
2023-05-06T05:28:18.968Z,1426.00
2023-05-06T05:29:18.980Z,1400.00
2023-05-06T05:30:18.983Z,1403.00
2023-05-06T05:31:19.067Z,1406.00
2023-05-06T05:32:18.981Z,1406.00
2023-05-06T05:33:19.095Z,1409.00
2023-05-06T05:34:18.957Z,1406.00
2023-05-06T05:35:18.965Z,1414.00
2023-05-06T05:36:18.971Z,1410.00
2023-05-06T05:37:18.922Z,1418.00
2023-05-06T05:38:18.939Z,1410.00
2023-05-06T05:39:18.938Z,1408.00
2023-05-06T05:40:19.058Z,1412.00
2023-05-06T05:41:18.919Z,1411.00
2023-05-06T05:42:18.942Z,1411.00
2023-05-06T05:43:18.966Z,1417.00
2023-05-06T05:44:18.938Z,1393.00
2023-05-06T05:45:18.910Z,1414.00
2023-05-06T05:46:19.038Z,1404.00
2023-05-06T05:47:18.960Z,1407.00
2023-05-06T05:48:18.951Z,1417.00
2023-05-06T05:49:18.972Z,1411.00
2023-05-06T05:50:18.943Z,1404.00
2023-05-06T05:51:18.919Z,1405.00
2023-05-06T05:52:18.976Z,1408.00
2023-05-06T05:53:18.900Z,1401.00
2023-05-06T05:54:18.880Z,1393.00
2023-05-06T05:55:18.950Z,1394.00
2023-05-06T05:56:18.965Z,1390.00
2023-05-06T05:57:18.962Z,1397.00
2023-05-06T05:58:18.908Z,1398.00
2023-05-06T05:59:18.871Z,1391.00
2023-05-06T06:00:18.909Z,1386.00
2023-05-06T06:01:18.883Z,1388.00
2023-05-06T06:02:18.908Z,1389.00
2023-05-06T06:03:18.964Z,1386.00
2023-05-06T06:04:18.965Z,1383.00
2023-05-06T06:05:18.855Z,1389.00
2023-05-06T06:06:18.869Z,1390.00
2023-05-06T06:07:18.856Z,1388.00
2023-05-06T06:08:18.881Z,1383.00
2023-05-06T06:09:18.838Z,1386.00
2023-05-06T06:10:18.844Z,1389.00
2023-05-06T06:11:18.858Z,1391.00
2023-05-06T06:12:18.864Z,1375.00
2023-05-06T06:13:18.933Z,1385.00
2023-05-06T06:14:18.885Z,1384.00
2023-05-06T06:15:18.893Z,1371.00
2023-05-06T06:16:18.976Z,1381.00
2023-05-06T06:17:18.885Z,1380.00
2023-05-06T06:18:18.957Z,1372.00
2023-05-06T06:19:18.933Z,1380.00
2023-05-06T06:20:18.976Z,1379.00
2023-05-06T06:21:18.966Z,1377.00
2023-05-06T06:22:18.955Z,1373.00
2023-05-06T06:23:18.931Z,1371.00
2023-05-06T06:24:18.957Z,1346.00
2023-05-06T06:25:18.959Z,1348.00
2023-05-06T06:26:18.950Z,1355.00
2023-05-06T06:27:18.921Z,1343.00
2023-05-06T06:28:19.025Z,1340.00
2023-05-06T06:29:18.941Z,1358.00
2023-05-06T06:30:18.903Z,1345.00
2023-05-06T06:31:18.931Z,1345.00
2023-05-06T06:32:18.919Z,1338.00
2023-05-06T06:33:18.895Z,1345.00
2023-05-06T06:34:18.913Z,1327.00
2023-05-06T06:35:18.913Z,1334.00
2023-05-06T06:36:18.884Z,1320.00
2023-05-06T06:37:19.459Z,1324.00
2023-05-06T06:38:18.859Z,1309.00
2023-05-06T06:39:19.476Z,1311.00
2023-05-06T06:40:18.897Z,1299.00
2023-05-06T06:41:18.873Z,1302.00
2023-05-06T06:42:18.897Z,1299.00
2023-05-06T06:43:18.878Z,1293.00
2023-05-06T06:44:18.952Z,1290.00
2023-05-06T06:45:18.871Z,1280.00
2023-05-06T06:46:19.049Z,1273.00
2023-05-06T06:47:18.906Z,1266.00
2023-05-06T06:48:18.821Z,1281.00
2023-05-06T06:49:19.011Z,1281.00
2023-05-06T06:50:18.928Z,1277.00
2023-05-06T06:51:18.901Z,1276.00
2023-05-06T06:52:18.933Z,1268.00
2023-05-06T06:53:18.949Z,1259.00
2023-05-06T06:54:19.480Z,1262.00
2023-05-06T06:55:18.904Z,1252.00
2023-05-06T06:56:19.013Z,1258.00
2023-05-06T06:57:18.959Z,1252.00
2023-05-06T06:58:18.972Z,1252.00
2023-05-06T06:59:18.976Z,1243.00
2023-05-06T07:00:19.180Z,1236.00
2023-05-06T07:01:19.116Z,1246.00
2023-05-06T07:02:19.105Z,1246.00
2023-05-06T07:03:19.118Z,1250.00
2023-05-06T07:04:19.168Z,1247.00
2023-05-06T07:05:19.134Z,1255.00
2023-05-06T07:06:19.201Z,1242.00
2023-05-06T07:07:19.250Z,1235.00
2023-05-06T07:08:19.281Z,1231.00
2023-05-06T07:09:19.465Z,1232.00
2023-05-06T07:10:19.444Z,1223.00
2023-05-06T07:11:19.420Z,1213.00
2023-05-06T07:12:19.478Z,1231.00
2023-05-06T07:13:19.639Z,1245.00
2023-05-06T07:14:19.607Z,1246.00
2023-05-06T07:15:19.674Z,1245.00
2023-05-06T07:16:19.742Z,1239.00
2023-05-06T07:17:19.937Z,1241.00
2023-05-06T07:18:19.874Z,1245.00
2023-05-06T07:19:19.891Z,1247.00
2023-05-06T07:20:19.970Z,1246.00
2023-05-06T07:21:19.975Z,1250.00
2023-05-06T07:22:20.079Z,1248.00
2023-05-06T07:23:20.128Z,1243.00
2023-05-06T07:24:20.308Z,1240.00
2023-05-06T07:25:20.239Z,1232.00
2023-05-06T07:26:20.297Z,1229.00
2023-05-06T07:27:20.372Z,1244.00
2023-05-06T07:28:20.418Z,1241.00
2023-05-06T07:29:20.465Z,1227.00
2023-05-06T07:30:22.427Z,1227.00
2023-05-06T07:31:20.587Z,1236.00
2023-05-06T07:32:20.592Z,1235.00
2023-05-06T07:33:20.534Z,1225.00
2023-05-06T07:34:20.548Z,1227.00
2023-05-06T07:35:20.533Z,1228.00
2023-05-06T07:36:20.515Z,1228.00
2023-05-06T07:37:20.591Z,1232.00
2023-05-06T07:38:20.686Z,1242.00
2023-05-06T07:39:20.500Z,1234.00
2023-05-06T07:40:20.590Z,1234.00
2023-05-06T07:41:20.471Z,1227.00
2023-05-06T07:42:20.503Z,1238.00
2023-05-06T07:43:20.467Z,1233.00
2023-05-06T07:44:20.444Z,1218.00
2023-05-06T07:45:20.478Z,1226.00
2023-05-06T07:46:20.518Z,1220.00
2023-05-06T07:47:20.526Z,1216.00
2023-05-06T07:48:20.614Z,1213.00
2023-05-06T07:49:20.411Z,1210.00
2023-05-06T07:50:20.454Z,1198.00
2023-05-06T07:51:20.395Z,1201.00
2023-05-06T07:52:20.396Z,1210.00
2023-05-06T07:53:20.454Z,1222.00
2023-05-06T07:54:20.396Z,1229.00
2023-05-06T07:55:20.402Z,1209.00
2023-05-06T07:56:20.387Z,1193.00
2023-05-06T07:57:20.383Z,1196.00
2023-05-06T07:58:20.386Z,1197.00
2023-05-06T07:59:20.348Z,1194.00
2023-05-06T08:00:20.337Z,1202.00
2023-05-06T08:01:20.352Z,1204.00
2023-05-06T08:02:20.486Z,1206.00
2023-05-06T08:03:20.515Z,1215.00
2023-05-06T08:04:20.407Z,1203.00
2023-05-06T08:05:20.327Z,1202.00
2023-05-06T08:06:20.345Z,1206.00
2023-05-06T08:07:20.481Z,1224.00
2023-05-06T08:08:20.286Z,1214.00
2023-05-06T08:09:23.045Z,1200.00
2023-05-06T08:10:20.295Z,1199.00
2023-05-06T08:11:20.298Z,1180.00
2023-05-06T08:12:20.289Z,1198.00
2023-05-06T08:13:20.367Z,1210.00
2023-05-06T08:14:20.228Z,1205.00
2023-05-06T08:15:20.234Z,1196.00
2023-05-06T08:16:20.931Z,1195.00
2023-05-06T08:17:20.240Z,1219.00
2023-05-06T08:18:22.823Z,1203.00
2023-05-06T08:19:20.166Z,1208.00
2023-05-06T08:20:20.338Z,1200.00
2023-05-06T08:21:20.256Z,1189.00
2023-05-06T08:22:20.197Z,1202.00
2023-05-06T08:23:20.195Z,1205.00
2023-05-06T08:24:20.207Z,1200.00
2023-05-06T08:25:20.208Z,1186.00
2023-05-06T08:26:20.169Z,1184.00
2023-05-06T08:27:20.178Z,1197.00
2023-05-06T08:28:20.189Z,1192.00
2023-05-06T08:29:20.124Z,1181.00
2023-05-06T08:30:20.113Z,1176.00
2023-05-06T08:31:20.200Z,1183.00
2023-05-06T08:32:20.149Z,1174.00
2023-05-06T08:33:20.105Z,1185.00
2023-05-06T08:34:20.064Z,1184.00
2023-05-06T08:35:20.134Z,1174.00
2023-05-06T08:36:20.167Z,1174.00
2023-05-06T08:37:20.073Z,1175.00
2023-05-06T08:38:20.172Z,1180.00
2023-05-06T08:39:20.053Z,1184.00
2023-05-06T08:40:20.079Z,1175.00
2023-05-06T08:41:20.022Z,1164.00
2023-05-06T08:42:20.073Z,1161.00
2023-05-06T08:43:20.004Z,1154.00
2023-05-06T08:44:20.025Z,1161.00
2023-05-06T08:45:20.057Z,1161.00
2023-05-06T08:46:20.093Z,1162.00
2023-05-06T08:47:20.000Z,1153.00
2023-05-06T08:48:20.011Z,1159.00
2023-05-06T08:49:20.025Z,1157.00
2023-05-06T08:50:19.987Z,1157.00
2023-05-06T08:51:19.963Z,1151.00
2023-05-06T08:52:20.031Z,1152.00
2023-05-06T08:53:20.009Z,1143.00
2023-05-06T08:54:19.996Z,1157.00
2023-05-06T08:55:19.952Z,1163.00
2023-05-06T08:56:19.981Z,1160.00
2023-05-06T08:57:19.972Z,1161.00
2023-05-06T08:58:20.054Z,1148.00
2023-05-06T08:59:19.917Z,1158.00
2023-05-06T09:00:20.026Z,1150.00
2023-05-06T09:01:19.980Z,1151.00
2023-05-06T09:02:19.955Z,1150.00
2023-05-06T09:03:19.954Z,1158.00
2023-05-06T09:04:19.872Z,1166.00
2023-05-06T09:05:19.927Z,1161.00
2023-05-06T09:06:19.902Z,1173.00
2023-05-06T09:07:19.876Z,1173.00
2023-05-06T09:08:19.883Z,1181.00
2023-05-06T09:09:19.842Z,1180.00
2023-05-06T09:10:19.948Z,1185.00
2023-05-06T09:11:19.869Z,1191.00
2023-05-06T09:12:19.866Z,1192.00
2023-05-06T09:13:20.012Z,1184.00
2023-05-06T09:14:19.836Z,1199.00
2023-05-06T09:15:19.835Z,1184.00
2023-05-06T09:16:19.888Z,1187.00
2023-05-06T09:17:19.826Z,1177.00
2023-05-06T09:18:19.809Z,1191.00
2023-05-06T09:19:19.816Z,1196.00
2023-05-06T09:20:19.846Z,1188.00
2023-05-06T09:21:19.790Z,1187.00
2023-05-06T09:22:19.881Z,1189.00
2023-05-06T09:23:19.788Z,1177.00
2023-05-06T09:24:19.852Z,1177.00
2023-05-06T09:25:19.747Z,1171.00
2023-05-06T09:26:19.765Z,1181.00
2023-05-06T09:27:19.823Z,1181.00
2023-05-06T09:28:19.826Z,1170.00
2023-05-06T09:29:19.820Z,1171.00
2023-05-06T09:30:19.834Z,1165.00
2023-05-06T09:31:19.906Z,1169.00
2023-05-06T09:32:19.907Z,1161.00
2023-05-06T09:33:19.887Z,1150.00
2023-05-06T09:34:19.937Z,1146.00
2023-05-06T09:35:19.919Z,1147.00
2023-05-06T09:36:19.964Z,1143.00
2023-05-06T09:37:19.985Z,1162.00
2023-05-06T09:38:19.982Z,1155.00
2023-05-06T09:39:20.082Z,1148.00
2023-05-06T09:40:20.094Z,1142.00
2023-05-06T09:41:20.041Z,1137.00
2023-05-06T09:42:20.116Z,1129.00
2023-05-06T09:43:20.104Z,1135.00
2023-05-06T09:44:20.133Z,1134.00
2023-05-06T09:45:20.104Z,1135.00
2023-05-06T09:46:20.119Z,1135.00
2023-05-06T09:47:20.279Z,1142.00
2023-05-06T09:48:20.160Z,1136.00
2023-05-06T09:49:20.162Z,1146.00
2023-05-06T09:50:20.208Z,1137.00
2023-05-06T09:51:20.306Z,1132.00
2023-05-06T09:52:20.263Z,1143.00
2023-05-06T09:53:20.251Z,1136.00
2023-05-06T09:54:20.314Z,1131.00
2023-05-06T09:55:20.304Z,1132.00
2023-05-06T09:56:20.495Z,1137.00
2023-05-06T09:57:20.311Z,1135.00
2023-05-06T09:58:20.345Z,1143.00
2023-05-06T09:59:20.397Z,1135.00
2023-05-06T10:00:20.376Z,1138.00
2023-05-06T10:01:32.485Z,1136.00
2023-05-06T10:02:21.480Z,1137.00
2023-05-06T10:03:20.513Z,1139.00
2023-05-06T10:04:20.515Z,1138.00
2023-05-06T10:05:20.419Z,1144.00
2023-05-06T10:06:20.347Z,1157.00
2023-05-06T10:07:20.439Z,1169.00
2023-05-06T10:08:20.405Z,1152.00
2023-05-06T10:09:20.325Z,1154.00
2023-05-06T10:10:20.378Z,1155.00
2023-05-06T10:11:20.332Z,1157.00
2023-05-06T10:12:20.377Z,1155.00
2023-05-06T10:13:20.388Z,1159.00
2023-05-06T10:14:20.299Z,1161.00
2023-05-06T10:15:20.283Z,1168.00
2023-05-06T10:16:20.298Z,1158.00
2023-05-06T10:17:20.325Z,1157.00
2023-05-06T10:18:20.247Z,1153.00
2023-05-06T10:19:20.272Z,1148.00
2023-05-06T10:20:20.235Z,1153.00
2023-05-06T10:21:20.275Z,1153.00
2023-05-06T10:22:20.338Z,1154.00
2023-05-06T10:23:20.233Z,1164.00
2023-05-06T10:24:20.263Z,1164.00
2023-05-06T10:25:20.204Z,1161.00
2023-05-06T10:26:20.304Z,1153.00
2023-05-06T10:27:20.217Z,1158.00
2023-05-06T10:28:30.012Z,1157.00
2023-05-06T10:29:21.226Z,1158.00
2023-05-06T10:30:20.192Z,1161.00
2023-05-06T10:31:20.196Z,1163.00
2023-05-06T10:32:20.258Z,1166.00
2023-05-06T10:33:20.213Z,1169.00
2023-05-06T10:34:20.160Z,1171.00
2023-05-06T10:35:20.137Z,1161.00
2023-05-06T10:36:20.155Z,1165.00
2023-05-06T10:37:20.146Z,1169.00
2023-05-06T10:38:20.106Z,1167.00
2023-05-06T10:39:20.130Z,1159.00
2023-05-06T10:40:20.125Z,1167.00
2023-05-06T10:41:20.105Z,1166.00
2023-05-06T10:42:20.088Z,1162.00
2023-05-06T10:43:20.072Z,1169.00
2023-05-06T10:44:20.150Z,1168.00
2023-05-06T10:45:20.097Z,1161.00
2023-05-06T10:46:20.093Z,1172.00
2023-05-06T10:47:20.108Z,1175.00
2023-05-06T10:48:20.051Z,1171.00
2023-05-06T10:49:20.082Z,1168.00
2023-05-06T10:50:20.074Z,1166.00
2023-05-06T10:51:20.077Z,1164.00
2023-05-06T10:52:20.033Z,1170.00
2023-05-06T10:53:20.015Z,1169.00
2023-05-06T10:54:20.022Z,1177.00
2023-05-06T10:55:20.065Z,1174.00
2023-05-06T10:56:19.975Z,1175.00
2023-05-06T10:57:20.013Z,1171.00
2023-05-06T10:58:20.002Z,1173.00
2023-05-06T10:59:20.018Z,1180.00
2023-05-06T11:00:20.047Z,1179.00
2023-05-06T11:01:20.009Z,1175.00
2023-05-06T11:02:20.192Z,1175.00
2023-05-06T11:03:20.077Z,1168.00
2023-05-06T11:04:19.965Z,1168.00
2023-05-06T11:05:19.919Z,1171.00
2023-05-06T11:06:19.931Z,1171.00
2023-05-06T11:07:19.930Z,1164.00
2023-05-06T11:08:19.943Z,1169.00
2023-05-06T11:09:19.954Z,1176.00
2023-05-06T11:10:19.890Z,1188.00
2023-05-06T11:11:19.888Z,1187.00
2023-05-06T11:12:19.903Z,1174.00
2023-05-06T11:13:19.942Z,1173.00
2023-05-06T11:14:19.893Z,1177.00
2023-05-06T11:15:19.864Z,1188.00
2023-05-06T11:16:19.866Z,1171.00
2023-05-06T11:17:19.985Z,1170.00
2023-05-06T11:18:19.864Z,1178.00
2023-05-06T11:19:19.851Z,1192.00
2023-05-06T11:20:19.882Z,1182.00
2023-05-06T11:21:19.856Z,1174.00
2023-05-06T11:22:19.797Z,1168.00
2023-05-06T11:23:19.804Z,1170.00
2023-05-06T11:24:19.841Z,1174.00
2023-05-06T11:25:19.785Z,1182.00
2023-05-06T11:26:19.826Z,1172.00
2023-05-06T11:27:19.809Z,1173.00
2023-05-06T11:28:19.780Z,1184.00
2023-05-06T11:29:19.779Z,1182.00
2023-05-06T11:30:19.801Z,1177.00
2023-05-06T11:31:19.840Z,1177.00
2023-05-06T11:32:19.764Z,1185.00
2023-05-06T11:33:19.746Z,1197.00
2023-05-06T11:34:19.751Z,1202.00
2023-05-06T11:35:19.753Z,1198.00
2023-05-06T11:36:19.816Z,1185.00
2023-05-06T11:37:19.719Z,1207.00
2023-05-06T11:38:19.700Z,1191.00
2023-05-06T11:39:19.725Z,1197.00
2023-05-06T11:40:19.795Z,1199.00
2023-05-06T11:41:19.703Z,1195.00
2023-05-06T11:42:19.699Z,1196.00
2023-05-06T11:43:19.699Z,1208.00
2023-05-06T11:44:19.743Z,1199.00
2023-05-06T11:45:19.709Z,1192.00
2023-05-06T11:46:19.744Z,1207.00
2023-05-06T11:47:19.740Z,1197.00
2023-05-06T11:48:19.762Z,1184.00
2023-05-06T11:49:19.643Z,1202.00
2023-05-06T11:50:19.662Z,1179.00
2023-05-06T11:51:19.627Z,1189.00
2023-05-06T11:52:19.646Z,1183.00
2023-05-06T11:53:19.656Z,1185.00
2023-05-06T11:54:19.612Z,1192.00
2023-05-06T11:55:19.608Z,1184.00
2023-05-06T11:56:19.592Z,1187.00
2023-05-06T11:57:19.629Z,1203.00
2023-05-06T11:58:19.569Z,1204.00
2023-05-06T11:59:19.582Z,1194.00
2023-05-06T12:00:19.642Z,1201.00
2023-05-06T12:01:19.536Z,1202.00
2023-05-06T12:02:19.649Z,1205.00
2023-05-06T12:03:19.622Z,1196.00
2023-05-06T12:04:19.613Z,1188.00
2023-05-06T12:05:19.568Z,1184.00